Terminal Aerodrome Forecast
Issued by NWS

Home | Current Version | Previous Version | Text Only | Print | Product List | Glossary On
Versions: 1 2 3 4 5 6 7 8 9 10 11 12 13 14 15 16
274
FTUS45 KRIW 242321
TAFWRL
TAF
KWRL 242321Z 2500/2524 00000KT P6SM -RA SCT014 OVC035
      TEMPO 2500/2504 4SM -RA OVC012
     FM250600 33011KT P6SM VCSH SCT006 OVC020
     FM251800 03004KT P6SM VCSH BKN040=

USA.gov is the U.S. government's official web portal to all federal, state and local government web resources and services.